Time;durP1;ratioP1;P1;durP2;ratioP2;P2;SDS_P1;SDS_P2;PMS_P1;PMS_P2;Temp;Humidity;BMP_temperature;BMP_pressure;BME280_temperature;BME280_humidity;BME280_pressure;Samples;Min_cycle;Max_cycle;Signal;HPM_P1;HPM_P2
2022/10/20 00:03:57;;;;;;;8.00;4.97;;;15.80;99.90;;;;;;8035633;72;26232;-59
2022/10/20 00:14:01;;;;;;;5.70;4.23;;;15.50;99.90;;;;;;7996041;72;26255;-60
2022/10/20 00:24:04;;;;;;;5.87;3.80;;;16.00;99.90;;;;;;8012953;72;26552;-59
2022/10/20 00:34:06;;;;;;;5.37;4.13;;;16.10;99.90;;;;;;8032904;72;26780;-60
2022/10/20 00:44:46;;;;;;;6.13;4.13;;;16.00;99.90;;;;;;8028743;72;26225;-59
2022/10/20 00:54:50;;;;;;;9.13;4.60;;;16.00;99.90;;;;;;7986962;72;26206;-58
2022/10/20 01:04:53;;;;;;;6.80;4.33;;;15.70;99.90;;;;;;8035471;73;26294;-59
2022/10/20 01:15:10;;;;;;;5.17;3.70;;;16.10;99.90;;;;;;8014678;72;26698;-59
2022/10/20 01:25:50;;;;;;;8.43;4.70;;;16.10;99.90;;;;;;8013589;72;26210;-60
2022/10/20 01:35:56;;;;;;;11.73;4.80;;;15.40;99.90;;;;;;8012665;72;26166;-61
2022/10/20 01:46:00;;;;;;;16.17;4.70;;;15.40;99.90;;;;;;7995215;73;26268;-57
2022/10/20 01:56:04;;;;;;;6.67;3.93;;;15.20;99.90;;;;;;8012959;72;26265;-60
2022/10/20 02:06:26;;;;;;;8.13;4.70;;;15.70;99.90;;;;;;8025143;72;26257;-61
2022/10/20 02:16:34;;;;;;;6.63;4.13;;;15.30;99.90;;;;;;7958580;72;26256;-61
2022/10/20 02:26:39;;;;;;;5.67;3.97;;;15.20;99.90;;;;;;8006567;73;26237;-59
2022/10/20 02:36:43;;;;;;;4.07;3.50;;;15.50;99.90;;;;;;7978380;73;26888;-61
2022/10/20 02:46:45;;;;;;;8.27;3.60;;;15.70;99.90;;;;;;8007790;73;26596;-58
2022/10/20 02:56:47;;;;;;;4.93;3.43;;;15.70;99.90;;;;;;7978923;73;26265;-57
2022/10/20 03:06:50;;;;;;;21.03;3.53;;;15.80;99.90;;;;;;7983890;73;26778;-61
2022/10/20 03:16:52;;;;;;;4.53;3.40;;;15.70;99.90;;;;;;8020467;72;26307;-60
2022/10/20 03:26:55;;;;;;;5.63;3.20;;;15.80;99.90;;;;;;8024379;72;26294;-61
2022/10/20 03:36:57;;;;;;;6.90;3.70;;;15.80;99.90;;;;;;8008543;72;26636;-61
2022/10/20 03:47:00;;;;;;;4.30;3.00;;;15.60;99.90;;;;;;8017635;72;26314;-61
2022/10/20 03:57:03;;;;;;;5.17;3.17;;;15.90;99.90;;;;;;8021964;72;26308;-61
2022/10/20 04:07:05;;;;;;;6.23;3.10;;;15.90;99.90;;;;;;8013016;72;26226;-61
2022/10/20 04:17:08;;;;;;;4.87;2.90;;;15.90;99.90;;;;;;8034905;72;26291;-61
2022/10/20 04:27:10;;;;;;;6.33;3.10;;;15.80;99.90;;;;;;8016297;72;26232;-61
2022/10/20 04:37:13;;;;;;;4.10;2.53;;;15.90;99.90;;;;;;8003491;72;26253;-61
2022/10/20 04:47:15;;;;;;;3.83;3.00;;;15.90;99.90;;;;;;8012506;72;27127;-61
2022/10/20 04:57:18;;;;;;;4.03;3.23;;;15.90;99.90;;;;;;8025889;72;26213;-61
2022/10/20 05:07:20;;;;;;;4.00;3.10;;;15.90;99.90;;;;;;8031726;72;26707;-61
2022/10/20 05:17:23;;;;;;;5.13;3.53;;;15.90;99.90;;;;;;7979019;73;26242;-61
2022/10/20 05:27:27;;;;;;;5.60;3.10;;;15.90;99.90;;;;;;8006999;72;26221;-61
2022/10/20 05:37:30;;;;;;;6.13;2.70;;;15.90;99.90;;;;;;8017989;72;26212;-61
2022/10/20 05:47:33;;;;;;;4.63;3.00;;;15.90;99.90;;;;;;8012856;72;26711;-60
2022/10/20 05:57:36;;;;;;;4.00;2.93;;;15.90;99.90;;;;;;8001057;72;26258;-61
2022/10/20 06:07:38;;;;;;;4.73;3.37;;;15.90;99.90;;;;;;8019784;72;26687;-61
2022/10/20 06:17:41;;;;;;;4.37;3.10;;;15.90;99.90;;;;;;8033555;72;26288;-61
2022/10/20 06:27:43;;;;;;;5.33;3.53;;;15.80;99.90;;;;;;7988051;72;26318;-61
2022/10/20 06:37:46;;;;;;;5.23;3.60;;;15.90;99.90;;;;;;8002661;72;26683;-59
2022/10/20 06:47:48;;;;;;;6.37;3.30;;;15.50;99.90;;;;;;8010677;72;26236;-61
2022/10/20 06:57:51;;;;;;;6.27;3.70;;;15.60;99.90;;;;;;8019923;72;26214;-61
2022/10/20 07:07:53;;;;;;;9.07;4.40;;;15.60;99.90;;;;;;7993405;72;26228;-58
2022/10/20 07:17:56;;;;;;;8.07;4.13;;;15.70;99.90;;;;;;7826729;74;26291;-61
2022/10/20 07:27:58;;;;;;;9.57;5.43;;;15.60;99.90;;;;;;7848649;74;26253;-59
2022/10/20 07:38:01;;;;;;;7.60;4.53;;;15.30;99.90;;;;;;7848755;74;26829;-61
2022/10/20 07:48:05;;;;;;;8.53;4.80;;;15.70;99.90;;;;;;7851477;74;26801;-60
2022/10/20 07:58:08;;;;;;;5.63;3.97;;;15.70;99.90;;;;;;7846885;74;26296;-62
2022/10/20 08:08:10;;;;;;;8.73;4.57;;;15.60;99.90;;;;;;7880945;74;26279;-59
2022/10/20 08:18:13;;;;;;;13.07;6.50;;;15.10;99.90;;;;;;8018758;72;26279;-63
2022/10/20 08:28:15;;;;;;;14.03;8.43;;;15.10;99.90;;;;;;8022810;72;26762;-59
2022/10/20 08:38:18;;;;;;;20.93;9.93;;;15.10;99.90;;;;;;8015638;72;26209;-63
2022/10/20 08:48:29;;;;;;;17.00;9.93;;;15.20;99.90;;;;;;8017556;72;26221;-62
2022/10/20 08:58:31;;;;;;;14.53;8.77;;;15.20;99.90;;;;;;7987019;72;26201;-62
2022/10/20 09:08:38;;;;;;;11.07;7.07;;;15.30;99.90;;;;;;8024475;72;26749;-63
2022/10/20 09:18:41;;;;;;;17.87;6.97;;;15.50;99.90;;;;;;8010386;72;26215;-60
2022/10/20 09:28:49;;;;;;;12.13;6.77;;;15.70;99.90;;;;;;7994056;72;26350;-61
2022/10/20 09:38:52;;;;;;;12.67;7.67;;;15.70;99.90;;;;;;8009785;72;26565;-60
2022/10/20 09:48:55;;;;;;;11.60;5.60;;;15.40;99.90;;;;;;8022058;72;26209;-61
2022/10/20 09:59:00;;;;;;;13.20;6.07;;;15.70;99.90;;;;;;8012383;72;26229;-61
2022/10/20 10:09:24;;;;;;;18.73;7.27;;;15.70;99.90;;;;;;8022137;73;26255;-59
2022/10/20 10:19:32;;;;;;;18.73;8.60;;;15.60;99.90;;;;;;8007607;72;26202;-61
2022/10/20 10:29:36;;;;;;;14.77;6.40;;;15.70;99.90;;;;;;8021666;73;26267;-58
2022/10/20 10:39:38;;;;;;;16.23;7.50;;;15.80;99.90;;;;;;8025083;73;26215;-59
2022/10/20 10:49:55;;;;;;;12.87;7.10;;;15.70;99.90;;;;;;8016876;73;26683;-60
2022/10/20 11:00:01;;;;;;;13.23;7.53;;;15.70;99.90;;;;;;8020303;73;26699;-59
2022/10/20 11:10:29;;;;;;;14.50;8.20;;;15.60;99.90;;;;;;8020443;72;26707;-60
2022/10/20 11:20:57;;;;;;;13.73;9.00;;;15.80;99.90;;;;;;8017385;73;26696;-61
2022/10/20 11:31:00;;;;;;;17.73;8.87;;;15.50;99.90;;;;;;8022758;73;26233;-60
2022/10/20 11:41:17;;;;;;;15.07;7.10;;;15.80;99.90;;;;;;8024616;73;26212;-61
2022/10/20 11:51:51;;;;;;;18.20;7.63;;;15.90;99.90;;;;;;8026637;72;26302;-60
2022/10/20 12:02:00;;;;;;;18.10;8.30;;;15.90;99.90;;;;;;8023347;72;26255;-61
2022/10/20 12:12:20;;;;;;;13.33;8.70;;;15.90;99.90;;;;;;8018902;73;26810;-62
2022/10/20 12:22:37;;;;;;;15.03;11.13;;;15.90;99.90;;;;;;8007008;72;26298;-62
2022/10/20 12:32:49;;;;;;;17.77;9.43;;;15.80;99.90;;;;;;8015838;72;26294;-63
2022/10/20 12:42:54;;;;;;;14.53;8.73;;;16.00;99.90;;;;;;7996847;72;26284;-61
2022/10/20 12:52:59;;;;;;;12.97;9.20;;;16.00;99.90;;;;;;8020732;72;26318;-60
2022/10/20 13:03:02;;;;;;;17.13;10.27;;;15.90;99.90;;;;;;7999007;72;26227;-61
2022/10/20 13:13:07;;;;;;;13.10;9.23;;;15.90;99.90;;;;;;7963958;73;26205;-62
2022/10/20 13:23:15;;;;;;;19.93;9.80;;;15.80;99.90;;;;;;7973230;73;26700;-62
2022/10/20 13:33:30;;;;;;;16.60;11.10;;;15.90;99.90;;;;;;7958008;73;26229;-63
2022/10/20 13:43:35;;;;;;;16.63;9.27;;;15.80;99.90;;;;;;7962215;73;26254;-62
2022/10/20 13:53:41;;;;;;;24.63;12.77;;;15.90;99.90;;;;;;7959487;74;26246;-62
2022/10/20 14:03:46;;;;;;;15.77;9.77;;;15.80;99.90;;;;;;7984171;73;26662;-62
2022/10/20 14:13:49;;;;;;;23.67;13.43;;;15.90;99.90;;;;;;7985764;73;26245;-61
2022/10/20 14:23:52;;;;;;;19.23;12.97;;;15.70;99.90;;;;;;7972024;73;26321;-61
2022/10/20 14:33:54;;;;;;;22.37;13.77;;;15.50;99.90;;;;;;7962750;73;26257;-63
2022/10/20 14:44:06;;;;;;;23.93;14.97;;;15.50;99.90;;;;;;8047625;73;26241;-63
2022/10/20 14:54:26;;;;;;;24.63;12.13;;;15.40;99.90;;;;;;7807144;75;26290;-63
2022/10/20 15:04:29;;;;;;;22.83;14.53;;;15.50;99.90;;;;;;7937284;73;26322;-62
2022/10/20 15:14:32;;;;;;;20.00;12.97;;;15.40;99.90;;;;;;7928669;73;27030;-62
2022/10/20 15:24:34;;;;;;;17.53;10.53;;;15.10;99.90;;;;;;7929308;73;26228;-62
2022/10/20 15:34:38;;;;;;;16.30;10.40;;;15.60;99.90;;;;;;7930816;74;26710;-61
2022/10/20 15:44:40;;;;;;;12.93;9.83;;;15.50;99.90;;;;;;7799361;74;26204;-61
2022/10/20 15:54:43;;;;;;;13.53;9.57;;;15.50;99.90;;;;;;7808952;75;26698;-62
2022/10/20 16:04:45;;;;;;;15.27;9.40;;;15.50;99.90;;;;;;7813062;75;26337;-62
2022/10/20 16:14:48;;;;;;;14.43;9.17;;;15.60;99.90;;;;;;7802198;75;26268;-57
2022/10/20 16:24:50;;;;;;;18.07;9.33;;;15.70;99.90;;;;;;7956063;73;27160;-58
2022/10/20 16:34:53;;;;;;;17.47;10.50;;;15.70;99.90;;;;;;7784871;75;26262;-58
2022/10/20 16:44:55;;;;;;;14.93;10.60;;;15.40;99.90;;;;;;7793762;75;26423;-57
2022/10/20 16:54:58;;;;;;;20.70;12.60;;;15.40;99.90;;;;;;7799038;75;26245;-58
2022/10/20 17:05:01;;;;;;;17.20;10.43;;;15.60;99.90;;;;;;7809873;75;26271;-57
2022/10/20 17:15:04;;;;;;;17.43;10.53;;;15.50;99.90;;;;;;7803238;75;26220;-58
2022/10/20 17:25:07;;;;;;;16.33;8.97;;;15.60;99.90;;;;;;7802905;75;26259;-59
2022/10/20 17:35:11;;;;;;;16.07;10.43;;;15.60;99.90;;;;;;7804523;75;26258;-58
2022/10/20 17:45:13;;;;;;;15.40;10.47;;;15.50;99.90;;;;;;7809304;74;26330;-54
2022/10/20 17:55:16;;;;;;;23.13;14.10;;;15.60;99.90;;;;;;7826146;74;26258;-54
2022/10/20 18:05:19;;;;;;;18.47;11.53;;;15.40;99.90;;;;;;7812474;75;26792;-52
2022/10/20 18:15:21;;;;;;;20.50;12.70;;;15.40;99.90;;;;;;7817541;75;26245;-53
2022/10/20 18:25:23;;;;;;;19.87;12.90;;;15.50;99.90;;;;;;7801362;75;26255;-50
2022/10/20 18:35:26;;;;;;;26.90;13.53;;;15.60;99.90;;;;;;7789492;75;26805;-53
2022/10/20 18:45:29;;;;;;;25.37;15.07;;;15.60;99.90;;;;;;7810265;75;26220;-53
2022/10/20 18:55:31;;;;;;;22.37;12.60;;;15.60;99.90;;;;;;7825991;75;26756;-54
2022/10/20 19:05:36;;;;;;;29.33;13.63;;;15.70;99.90;;;;;;7817525;75;26286;-51
2022/10/20 19:15:41;;;;;;;21.30;12.33;;;15.60;99.90;;;;;;7961044;73;26235;-53
2022/10/20 19:25:43;;;;;;;36.90;14.67;;;15.60;99.90;;;;;;7816388;75;26226;-53
2022/10/20 19:35:48;;;;;;;46.17;14.43;;;15.70;99.90;;;;;;7814575;75;26358;-57
2022/10/20 19:45:50;;;;;;;45.37;15.67;;;15.70;99.90;;;;;;7823534;74;26274;-52
2022/10/20 19:55:53;;;;;;;49.00;13.00;;;15.80;99.90;;;;;;7798571;75;27063;-52
2022/10/20 20:05:59;;;;;;;39.77;14.70;;;15.80;99.90;;;;;;7810906;75;26293;-54
2022/10/20 20:16:08;;;;;;;36.57;11.20;;;15.80;99.90;;;;;;7802099;74;26583;-55
2022/10/20 20:26:11;;;;;;;31.03;10.90;;;15.80;99.90;;;;;;7959062;73;26307;-54
2022/10/20 20:36:14;;;;;;;29.70;14.23;;;15.80;99.90;;;;;;7914186;73;26284;-58
2022/10/20 20:46:19;;;;;;;25.47;14.97;;;15.70;99.90;;;;;;7813356;73;26428;-57
2022/10/20 20:56:21;;;;;;;28.60;15.07;;;15.80;99.90;;;;;;7686639;75;26738;-59
2022/10/20 21:06:25;;;;;;;33.70;15.87;;;15.80;99.90;;;;;;7738913;75;26339;-56
2022/10/20 21:16:36;;;;;;;28.63;17.33;;;15.80;99.90;;;;;;7707063;75;26302;-56
2022/10/20 21:26:39;;;;;;;25.17;17.13;;;15.80;99.90;;;;;;7648276;75;26318;-58
2022/10/20 21:36:41;;;;;;;28.30;16.10;;;15.80;99.90;;;;;;7615564;75;26312;-59
2022/10/20 21:46:49;;;;;;;32.93;16.37;;;15.80;99.90;;;;;;7736548;76;26319;-57
2022/10/20 21:56:52;;;;;;;29.00;16.23;;;15.80;99.90;;;;;;7684488;76;26392;-56
2022/10/20 22:06:56;;;;;;;26.83;15.67;;;15.80;99.90;;;;;;7742222;75;26795;-58
2022/10/20 22:16:58;;;;;;;25.30;15.47;;;15.80;99.90;;;;;;7734184;75;27479;-56
2022/10/20 22:27:01;;;;;;;23.07;15.10;;;15.70;99.90;;;;;;7735740;74;26373;-57
2022/10/20 22:37:03;;;;;;;25.23;13.07;;;15.60;99.90;;;;;;7830649;74;26246;-59
2022/10/20 22:47:06;;;;;;;18.83;13.10;;;15.60;99.90;;;;;;7837657;73;26296;-56
2022/10/20 22:57:08;;;;;;;17.53;12.57;;;15.70;99.90;;;;;;7873375;74;26383;-58
2022/10/20 23:07:11;;;;;;;16.13;11.27;;;15.80;99.90;;;;;;7815124;74;27310;-56
2022/10/20 23:17:13;;;;;;;17.10;9.70;;;15.80;99.90;;;;;;7842505;73;26379;-57
2022/10/20 23:27:16;;;;;;;13.63;9.43;;;15.90;99.90;;;;;;7821856;74;26293;-55
2022/10/20 23:37:20;;;;;;;12.47;8.20;;;15.90;99.90;;;;;;7804836;74;26292;-56
2022/10/20 23:47:23;;;;;;;16.53;8.83;;;16.00;99.90;;;;;;7791096;73;27225;-57
2022/10/20 23:57:25;;;;;;;20.13;8.20;;;16.00;99.90;;;;;;7858404;73;26241;-57
